sensor_id;sensor_type;location;lat;lon;timestamp;temperature;humidity
3860;DHT22;1945;52.036;8.614;2023-09-18T00:00:40;17.60;99.90
3860;DHT22;1945;52.036;8.614;2023-09-18T00:03:08;17.50;99.90
3860;DHT22;1945;52.036;8.614;2023-09-18T00:05:36;17.50;99.90
3860;DHT22;1945;52.036;8.614;2023-09-18T00:08:05;17.40;99.90
3860;DHT22;1945;52.036;8.614;2023-09-18T00:10:32;17.30;99.90
3860;DHT22;1945;52.036;8.614;2023-09-18T00:12:59;17.30;99.90
3860;DHT22;1945;52.036;8.614;2023-09-18T00:15:26;17.30;99.90
3860;DHT22;1945;52.036;8.614;2023-09-18T00:17:53;17.20;99.90
3860;DHT22;1945;52.036;8.614;2023-09-18T00:20:20;17.30;99.90
3860;DHT22;1945;52.036;8.614;2023-09-18T00:22:54;17.30;99.90
3860;DHT22;1945;52.036;8.614;2023-09-18T00:25:21;17.20;99.90
3860;DHT22;1945;52.036;8.614;2023-09-18T00:27:48;17.30;99.90
3860;DHT22;1945;52.036;8.614;2023-09-18T00:30:15;17.30;99.90
3860;DHT22;1945;52.036;8.614;2023-09-18T00:32:42;17.30;99.90
3860;DHT22;1945;52.036;8.614;2023-09-18T00:35:08;17.30;99.90
3860;DHT22;1945;52.036;8.614;2023-09-18T00:37:35;17.20;99.90
3860;DHT22;1945;52.036;8.614;2023-09-18T00:40:04;17.10;99.90
3860;DHT22;1945;52.036;8.614;2023-09-18T00:42:31;17.20;99.90
3860;DHT22;1945;52.036;8.614;2023-09-18T00:44:58;17.20;99.90
3860;DHT22;1945;52.036;8.614;2023-09-18T00:47:25;17.10;99.90
3860;DHT22;1945;52.036;8.614;2023-09-18T00:49:52;17.20;99.90
3860;DHT22;1945;52.036;8.614;2023-09-18T00:52:24;17.20;99.90
3860;DHT22;1945;52.036;8.614;2023-09-18T00:54:51;17.20;99.90
3860;DHT22;1945;52.036;8.614;2023-09-18T00:57:20;17.30;99.90
3860;DHT22;1945;52.036;8.614;2023-09-18T00:59:47;17.20;99.90
3860;DHT22;1945;52.036;8.614;2023-09-18T01:02:14;17.20;99.90
3860;DHT22;1945;52.036;8.614;2023-09-18T01:04:41;17.20;99.90
3860;DHT22;1945;52.036;8.614;2023-09-18T01:07:10;17.20;99.90
3860;DHT22;1945;52.036;8.614;2023-09-18T01:09:37;17.30;99.90
3860;DHT22;1945;52.036;8.614;2023-09-18T01:12:08;17.20;99.90
3860;DHT22;1945;52.036;8.614;2023-09-18T01:14:44;17.20;99.90
3860;DHT22;1945;52.036;8.614;2023-09-18T01:17:15;17.10;99.90
3860;DHT22;1945;52.036;8.614;2023-09-18T01:19:44;17.20;99.90
3860;DHT22;1945;52.036;8.614;2023-09-18T01:22:13;17.10;99.90
3860;DHT22;1945;52.036;8.614;2023-09-18T01:24:41;17.10;99.90
3860;DHT22;1945;52.036;8.614;2023-09-18T01:27:09;17.10;99.90
3860;DHT22;1945;52.036;8.614;2023-09-18T01:29:36;17.10;99.90
3860;DHT22;1945;52.036;8.614;2023-09-18T01:32:04;17.00;99.90
3860;DHT22;1945;52.036;8.614;2023-09-18T01:34:33;17.00;99.90
3860;DHT22;1945;52.036;8.614;2023-09-18T01:37:03;16.90;99.90
3860;DHT22;1945;52.036;8.614;2023-09-18T01:39:31;16.90;99.90
3860;DHT22;1945;52.036;8.614;2023-09-18T01:42:01;16.90;99.90
3860;DHT22;1945;52.036;8.614;2023-09-18T01:44:28;16.90;99.90
3860;DHT22;1945;52.036;8.614;2023-09-18T01:46:56;16.90;99.90
3860;DHT22;1945;52.036;8.614;2023-09-18T01:49:28;16.90;99.90
3860;DHT22;1945;52.036;8.614;2023-09-18T01:51:55;16.90;99.90
3860;DHT22;1945;52.036;8.614;2023-09-18T01:54:22;17.00;99.90
3860;DHT22;1945;52.036;8.614;2023-09-18T01:56:49;17.10;99.90
3860;DHT22;1945;52.036;8.614;2023-09-18T01:59:17;17.20;99.90
3860;DHT22;1945;52.036;8.614;2023-09-18T02:01:43;17.20;99.90
3860;DHT22;1945;52.036;8.614;2023-09-18T02:04:10;17.10;99.90
3860;DHT22;1945;52.036;8.614;2023-09-18T02:06:37;17.10;99.90
3860;DHT22;1945;52.036;8.614;2023-09-18T02:09:05;17.10;99.90
3860;DHT22;1945;52.036;8.614;2023-09-18T02:11:35;17.10;99.90
3860;DHT22;1945;52.036;8.614;2023-09-18T02:14:03;17.10;99.90
3860;DHT22;1945;52.036;8.614;2023-09-18T02:16:36;17.20;99.90
3860;DHT22;1945;52.036;8.614;2023-09-18T02:19:03;17.30;99.90
3860;DHT22;1945;52.036;8.614;2023-09-18T02:21:31;17.40;99.90
3860;DHT22;1945;52.036;8.614;2023-09-18T02:23:57;17.40;99.90
3860;DHT22;1945;52.036;8.614;2023-09-18T02:26:24;17.50;99.90
3860;DHT22;1945;52.036;8.614;2023-09-18T02:28:52;17.40;99.90
3860;DHT22;1945;52.036;8.614;2023-09-18T02:31:19;17.40;99.90
3860;DHT22;1945;52.036;8.614;2023-09-18T02:33:48;17.40;99.90
3860;DHT22;1945;52.036;8.614;2023-09-18T02:36:15;17.30;99.90
3860;DHT22;1945;52.036;8.614;2023-09-18T02:38:42;17.30;99.90
3860;DHT22;1945;52.036;8.614;2023-09-18T02:41:09;17.30;99.90
3860;DHT22;1945;52.036;8.614;2023-09-18T02:43:36;17.30;99.90
3860;DHT22;1945;52.036;8.614;2023-09-18T02:46:10;17.30;99.90
3860;DHT22;1945;52.036;8.614;2023-09-18T02:48:36;17.20;99.90
3860;DHT22;1945;52.036;8.614;2023-09-18T02:51:05;17.30;99.90
3860;DHT22;1945;52.036;8.614;2023-09-18T02:53:32;17.30;99.90
3860;DHT22;1945;52.036;8.614;2023-09-18T02:55:59;17.40;99.90
3860;DHT22;1945;52.036;8.614;2023-09-18T02:58:27;17.40;99.90
3860;DHT22;1945;52.036;8.614;2023-09-18T03:00:55;17.40;99.90
3860;DHT22;1945;52.036;8.614;2023-09-18T03:03:22;17.40;99.90
3860;DHT22;1945;52.036;8.614;2023-09-18T03:05:49;17.40;99.90
3860;DHT22;1945;52.036;8.614;2023-09-18T03:08:17;17.40;99.90
3860;DHT22;1945;52.036;8.614;2023-09-18T03:10:44;17.40;99.90
3860;DHT22;1945;52.036;8.614;2023-09-18T03:13:14;17.50;99.90
3860;DHT22;1945;52.036;8.614;2023-09-18T03:15:45;17.50;99.90
3860;DHT22;1945;52.036;8.614;2023-09-18T03:18:13;17.60;99.90
3860;DHT22;1945;52.036;8.614;2023-09-18T03:20:40;17.70;99.90
3860;DHT22;1945;52.036;8.614;2023-09-18T03:23:07;17.70;99.90
3860;DHT22;1945;52.036;8.614;2023-09-18T03:25:35;17.80;99.90
3860;DHT22;1945;52.036;8.614;2023-09-18T03:28:03;17.80;99.90
3860;DHT22;1945;52.036;8.614;2023-09-18T03:30:30;17.90;99.90
3860;DHT22;1945;52.036;8.614;2023-09-18T03:32:56;18.00;99.90
3860;DHT22;1945;52.036;8.614;2023-09-18T03:35:23;18.00;99.90
3860;DHT22;1945;52.036;8.614;2023-09-18T03:37:51;18.10;99.90
3860;DHT22;1945;52.036;8.614;2023-09-18T03:40:19;18.20;99.90
3860;DHT22;1945;52.036;8.614;2023-09-18T03:42:48;18.20;99.90
3860;DHT22;1945;52.036;8.614;2023-09-18T03:45:15;18.20;99.90
3860;DHT22;1945;52.036;8.614;2023-09-18T03:47:44;18.20;99.90
3860;DHT22;1945;52.036;8.614;2023-09-18T03:50:11;18.30;99.90
3860;DHT22;1945;52.036;8.614;2023-09-18T03:52:39;18.40;99.90
3860;DHT22;1945;52.036;8.614;2023-09-18T03:55:06;18.40;99.90
3860;DHT22;1945;52.036;8.614;2023-09-18T03:57:33;18.50;99.90
3860;DHT22;1945;52.036;8.614;2023-09-18T04:00:03;18.50;99.90
3860;DHT22;1945;52.036;8.614;2023-09-18T04:02:30;18.60;99.90
3860;DHT22;1945;52.036;8.614;2023-09-18T04:04:57;18.60;99.90
3860;DHT22;1945;52.036;8.614;2023-09-18T04:07:26;18.70;99.90
3860;DHT22;1945;52.036;8.614;2023-09-18T04:09:53;18.60;99.90
3860;DHT22;1945;52.036;8.614;2023-09-18T04:12:20;18.60;99.90
3860;DHT22;1945;52.036;8.614;2023-09-18T04:14:46;18.70;99.90
3860;DHT22;1945;52.036;8.614;2023-09-18T04:17:15;18.70;99.90
3860;DHT22;1945;52.036;8.614;2023-09-18T04:19:41;18.80;99.90
3860;DHT22;1945;52.036;8.614;2023-09-18T04:22:08;18.80;99.90
3860;DHT22;1945;52.036;8.614;2023-09-18T04:24:35;18.80;99.90
3860;DHT22;1945;52.036;8.614;2023-09-18T04:27:02;18.80;99.90
3860;DHT22;1945;52.036;8.614;2023-09-18T04:29:29;18.80;99.90
3860;DHT22;1945;52.036;8.614;2023-09-18T04:31:56;18.80;99.90
3860;DHT22;1945;52.036;8.614;2023-09-18T04:34:24;18.70;99.90
3860;DHT22;1945;52.036;8.614;2023-09-18T04:36:51;18.70;99.90
3860;DHT22;1945;52.036;8.614;2023-09-18T04:39:18;18.70;99.90
3860;DHT22;1945;52.036;8.614;2023-09-18T04:41:45;18.70;99.90
3860;DHT22;1945;52.036;8.614;2023-09-18T04:44:11;18.70;99.90
3860;DHT22;1945;52.036;8.614;2023-09-18T04:46:40;18.70;99.90
3860;DHT22;1945;52.036;8.614;2023-09-18T04:49:07;18.60;99.90
3860;DHT22;1945;52.036;8.614;2023-09-18T04:51:37;18.60;99.90
3860;DHT22;1945;52.036;8.614;2023-09-18T04:54:04;18.60;99.90
3860;DHT22;1945;52.036;8.614;2023-09-18T04:56:32;18.60;99.90
3860;DHT22;1945;52.036;8.614;2023-09-18T04:58:58;18.70;99.90
3860;DHT22;1945;52.036;8.614;2023-09-18T05:01:25;18.70;99.90
3860;DHT22;1945;52.036;8.614;2023-09-18T05:03:52;18.70;99.90
3860;DHT22;1945;52.036;8.614;2023-09-18T05:06:19;18.80;99.90
3860;DHT22;1945;52.036;8.614;2023-09-18T05:08:47;18.90;99.90
3860;DHT22;1945;52.036;8.614;2023-09-18T05:11:14;18.80;99.90
3860;DHT22;1945;52.036;8.614;2023-09-18T05:13:42;19.00;99.90
3860;DHT22;1945;52.036;8.614;2023-09-18T05:16:08;19.10;99.90
3860;DHT22;1945;52.036;8.614;2023-09-18T05:18:35;19.20;99.90
3860;DHT22;1945;52.036;8.614;2023-09-18T05:21:03;19.40;99.90
3860;DHT22;1945;52.036;8.614;2023-09-18T05:23:31;19.30;99.90
3860;DHT22;1945;52.036;8.614;2023-09-18T05:25:59;19.50;99.90
3860;DHT22;1945;52.036;8.614;2023-09-18T05:28:26;19.70;99.90
3860;DHT22;1945;52.036;8.614;2023-09-18T05:30:53;19.70;99.90
3860;DHT22;1945;52.036;8.614;2023-09-18T05:33:20;19.60;99.90
3860;DHT22;1945;52.036;8.614;2023-09-18T05:35:47;19.70;99.90
3860;DHT22;1945;52.036;8.614;2023-09-18T05:38:14;19.60;99.90
3860;DHT22;1945;52.036;8.614;2023-09-18T05:40:46;19.50;99.90
3860;DHT22;1945;52.036;8.614;2023-09-18T05:43:18;19.50;99.90
3860;DHT22;1945;52.036;8.614;2023-09-18T05:45:46;19.50;99.90
3860;DHT22;1945;52.036;8.614;2023-09-18T05:48:15;19.60;99.90
3860;DHT22;1945;52.036;8.614;2023-09-18T05:50:41;19.60;99.90
3860;DHT22;1945;52.036;8.614;2023-09-18T05:53:08;19.60;99.90
3860;DHT22;1945;52.036;8.614;2023-09-18T05:55:35;19.70;99.90
3860;DHT22;1945;52.036;8.614;2023-09-18T05:58:17;19.70;99.90
3860;DHT22;1945;52.036;8.614;2023-09-18T06:00:47;19.80;99.90
3860;DHT22;1945;52.036;8.614;2023-09-18T06:03:14;19.80;99.90
3860;DHT22;1945;52.036;8.614;2023-09-18T06:05:44;19.80;99.90
3860;DHT22;1945;52.036;8.614;2023-09-18T06:08:11;19.80;99.90
3860;DHT22;1945;52.036;8.614;2023-09-18T06:10:40;19.80;99.90
3860;DHT22;1945;52.036;8.614;2023-09-18T06:13:07;19.80;99.90
3860;DHT22;1945;52.036;8.614;2023-09-18T06:15:35;19.80;99.90
3860;DHT22;1945;52.036;8.614;2023-09-18T06:18:02;19.80;99.90
3860;DHT22;1945;52.036;8.614;2023-09-18T06:20:29;19.80;99.90
3860;DHT22;1945;52.036;8.614;2023-09-18T06:22:56;19.90;99.90
3860;DHT22;1945;52.036;8.614;2023-09-18T06:25:23;19.80;99.90
3860;DHT22;1945;52.036;8.614;2023-09-18T06:27:50;19.80;99.90
3860;DHT22;1945;52.036;8.614;2023-09-18T06:30:17;19.80;99.90
3860;DHT22;1945;52.036;8.614;2023-09-18T06:32:45;19.80;99.90
3860;DHT22;1945;52.036;8.614;2023-09-18T06:35:11;19.80;99.90
3860;DHT22;1945;52.036;8.614;2023-09-18T06:37:38;19.80;99.90
3860;DHT22;1945;52.036;8.614;2023-09-18T06:40:06;19.90;99.90
3860;DHT22;1945;52.036;8.614;2023-09-18T06:42:33;20.00;99.90
3860;DHT22;1945;52.036;8.614;2023-09-18T06:45:00;20.10;99.90
3860;DHT22;1945;52.036;8.614;2023-09-18T06:47:27;20.00;99.90
3860;DHT22;1945;52.036;8.614;2023-09-18T06:49:55;20.10;99.90
3860;DHT22;1945;52.036;8.614;2023-09-18T06:52:22;20.10;99.90
3860;DHT22;1945;52.036;8.614;2023-09-18T06:54:48;20.20;99.90
3860;DHT22;1945;52.036;8.614;2023-09-18T06:57:15;20.30;99.90
3860;DHT22;1945;52.036;8.614;2023-09-18T06:59:42;20.30;99.90
3860;DHT22;1945;52.036;8.614;2023-09-18T07:02:10;20.50;86.30
3860;DHT22;1945;52.036;8.614;2023-09-18T07:04:40;20.40;37.00
3860;DHT22;1945;52.036;8.614;2023-09-18T07:07:12;20.50;26.70
3860;DHT22;1945;52.036;8.614;2023-09-18T07:09:39;20.60;63.90
3860;DHT22;1945;52.036;8.614;2023-09-18T07:12:07;20.70;15.30
3860;DHT22;1945;52.036;8.614;2023-09-18T07:14:34;20.80;1.00
3860;DHT22;1945;52.036;8.614;2023-09-18T07:17:00;20.70;10.70
3860;DHT22;1945;52.036;8.614;2023-09-18T07:19:27;20.80;1.00
3860;DHT22;1945;52.036;8.614;2023-09-18T07:21:54;20.80;49.50
3860;DHT22;1945;52.036;8.614;2023-09-18T07:24:22;20.90;1.00
3860;DHT22;1945;52.036;8.614;2023-09-18T07:26:49;21.00;1.00
3860;DHT22;1945;52.036;8.614;2023-09-18T07:29:16;21.10;1.00
3860;DHT22;1945;52.036;8.614;2023-09-18T07:31:43;21.20;1.00
3860;DHT22;1945;52.036;8.614;2023-09-18T07:34:10;21.40;1.00
3860;DHT22;1945;52.036;8.614;2023-09-18T07:36:37;21.80;1.00
3860;DHT22;1945;52.036;8.614;2023-09-18T07:39:04;22.10;1.00
3860;DHT22;1945;52.036;8.614;2023-09-18T07:41:33;22.10;1.00
3860;DHT22;1945;52.036;8.614;2023-09-18T07:43:59;22.10;1.00
3860;DHT22;1945;52.036;8.614;2023-09-18T07:46:26;22.10;1.00
3860;DHT22;1945;52.036;8.614;2023-09-18T07:48:53;22.00;1.00
3860;DHT22;1945;52.036;8.614;2023-09-18T07:51:20;22.10;1.00
3860;DHT22;1945;52.036;8.614;2023-09-18T07:53:47;22.20;1.00
3860;DHT22;1945;52.036;8.614;2023-09-18T07:56:14;22.30;99.90
3860;DHT22;1945;52.036;8.614;2023-09-18T07:58:42;22.60;99.90
3860;DHT22;1945;52.036;8.614;2023-09-18T08:01:08;22.60;99.90
3860;DHT22;1945;52.036;8.614;2023-09-18T08:03:35;22.40;99.90
3860;DHT22;1945;52.036;8.614;2023-09-18T08:06:02;22.40;99.90
3860;DHT22;1945;52.036;8.614;2023-09-18T08:08:30;22.10;99.90
3860;DHT22;1945;52.036;8.614;2023-09-18T08:11:00;22.10;99.90
3860;DHT22;1945;52.036;8.614;2023-09-18T08:13:27;22.00;99.90
3860;DHT22;1945;52.036;8.614;2023-09-18T08:15:56;22.00;99.90
3860;DHT22;1945;52.036;8.614;2023-09-18T08:18:22;21.90;99.90
3860;DHT22;1945;52.036;8.614;2023-09-18T08:20:52;21.90;99.90
3860;DHT22;1945;52.036;8.614;2023-09-18T08:23:19;21.90;99.90
3860;DHT22;1945;52.036;8.614;2023-09-18T08:25:45;21.80;99.90
3860;DHT22;1945;52.036;8.614;2023-09-18T08:28:14;21.90;99.90
3860;DHT22;1945;52.036;8.614;2023-09-18T08:30:41;21.90;99.90
3860;DHT22;1945;52.036;8.614;2023-09-18T08:33:11;21.90;99.90
3860;DHT22;1945;52.036;8.614;2023-09-18T08:35:38;21.70;99.90
3860;DHT22;1945;52.036;8.614;2023-09-18T08:38:05;21.80;99.90
3860;DHT22;1945;52.036;8.614;2023-09-18T08:40:33;21.80;99.90
3860;DHT22;1945;52.036;8.614;2023-09-18T08:43:01;21.70;99.90
3860;DHT22;1945;52.036;8.614;2023-09-18T08:45:35;21.70;99.90
3860;DHT22;1945;52.036;8.614;2023-09-18T08:48:05;21.70;99.90
3860;DHT22;1945;52.036;8.614;2023-09-18T08:50:34;21.60;99.90
3860;DHT22;1945;52.036;8.614;2023-09-18T08:53:01;21.50;99.90
3860;DHT22;1945;52.036;8.614;2023-09-18T08:55:28;21.60;99.90
3860;DHT22;1945;52.036;8.614;2023-09-18T08:57:56;21.60;1.00
3860;DHT22;1945;52.036;8.614;2023-09-18T09:00:24;21.70;99.90
3860;DHT22;1945;52.036;8.614;2023-09-18T09:02:51;21.80;99.90
3860;DHT22;1945;52.036;8.614;2023-09-18T09:05:19;21.90;99.90
3860;DHT22;1945;52.036;8.614;2023-09-18T09:07:48;21.80;99.90
3860;DHT22;1945;52.036;8.614;2023-09-18T09:10:15;21.70;99.90
3860;DHT22;1945;52.036;8.614;2023-09-18T09:12:50;21.80;99.90
3860;DHT22;1945;52.036;8.614;2023-09-18T09:15:19;21.90;99.90
3860;DHT22;1945;52.036;8.614;2023-09-18T09:17:46;21.80;99.90
3860;DHT22;1945;52.036;8.614;2023-09-18T09:20:14;21.80;99.90
3860;DHT22;1945;52.036;8.614;2023-09-18T09:22:42;21.80;99.90
3860;DHT22;1945;52.036;8.614;2023-09-18T09:25:28;21.90;99.90
3860;DHT22;1945;52.036;8.614;2023-09-18T09:27:57;22.00;99.90
3860;DHT22;1945;52.036;8.614;2023-09-18T09:30:26;22.00;99.90
3860;DHT22;1945;52.036;8.614;2023-09-18T09:32:54;21.90;99.90
3860;DHT22;1945;52.036;8.614;2023-09-18T09:35:23;21.90;99.90
3860;DHT22;1945;52.036;8.614;2023-09-18T09:37:53;22.10;99.90
3860;DHT22;1945;52.036;8.614;2023-09-18T09:40:21;22.30;99.90
3860;DHT22;1945;52.036;8.614;2023-09-18T09:42:51;22.40;99.90
3860;DHT22;1945;52.036;8.614;2023-09-18T09:45:19;22.40;31.40
3860;DHT22;1945;52.036;8.614;2023-09-18T09:47:46;22.40;99.90
3860;DHT22;1945;52.036;8.614;2023-09-18T09:50:14;22.40;23.70
3860;DHT22;1945;52.036;8.614;2023-09-18T09:52:46;22.30;99.90
3860;DHT22;1945;52.036;8.614;2023-09-18T09:55:35;22.10;49.50
3860;DHT22;1945;52.036;8.614;2023-09-18T09:58:06;22.40;99.90
3860;DHT22;1945;52.036;8.614;2023-09-18T10:00:35;22.30;99.90
3860;DHT22;1945;52.036;8.614;2023-09-18T10:03:06;22.20;99.90
3860;DHT22;1945;52.036;8.614;2023-09-18T10:05:35;22.20;99.90
3860;DHT22;1945;52.036;8.614;2023-09-18T10:08:06;22.10;99.90
3860;DHT22;1945;52.036;8.614;2023-09-18T10:10:38;22.10;23.30
3860;DHT22;1945;52.036;8.614;2023-09-18T10:13:11;22.20;99.90
3860;DHT22;1945;52.036;8.614;2023-09-18T10:15:39;22.10;89.00
3860;DHT22;1945;52.036;8.614;2023-09-18T10:18:23;22.10;99.90
3860;DHT22;1945;52.036;8.614;2023-09-18T10:20:59;22.20;99.90
3860;DHT22;1945;52.036;8.614;2023-09-18T10:23:45;22.20;78.90
3860;DHT22;1945;52.036;8.614;2023-09-18T10:26:22;22.40;1.00
3860;DHT22;1945;52.036;8.614;2023-09-18T10:28:53;22.50;35.50
3860;DHT22;1945;52.036;8.614;2023-09-18T10:31:24;22.50;1.00
3860;DHT22;1945;52.036;8.614;2023-09-18T10:33:52;22.60;1.00
3860;DHT22;1945;52.036;8.614;2023-09-18T10:36:25;22.50;1.00
3860;DHT22;1945;52.036;8.614;2023-09-18T10:38:52;22.50;1.00
3860;DHT22;1945;52.036;8.614;2023-09-18T10:41:22;22.70;1.00
3860;DHT22;1945;52.036;8.614;2023-09-18T10:43:56;22.70;1.00
3860;DHT22;1945;52.036;8.614;2023-09-18T10:46:25;22.80;1.00
3860;DHT22;1945;52.036;8.614;2023-09-18T10:48:52;22.90;1.00
3860;DHT22;1945;52.036;8.614;2023-09-18T10:51:21;22.80;1.00
3860;DHT22;1945;52.036;8.614;2023-09-18T10:53:48;22.90;1.00
3860;DHT22;1945;52.036;8.614;2023-09-18T10:56:15;22.70;1.00
3860;DHT22;1945;52.036;8.614;2023-09-18T10:58:43;22.80;1.00
3860;DHT22;1945;52.036;8.614;2023-09-18T11:01:12;23.00;1.00
3860;DHT22;1945;52.036;8.614;2023-09-18T11:03:39;23.30;1.00
3860;DHT22;1945;52.036;8.614;2023-09-18T11:06:08;23.30;1.00
3860;DHT22;1945;52.036;8.614;2023-09-18T11:08:43;23.00;1.00
3860;DHT22;1945;52.036;8.614;2023-09-18T11:11:12;22.80;1.00
3860;DHT22;1945;52.036;8.614;2023-09-18T11:13:41;22.80;1.00
3860;DHT22;1945;52.036;8.614;2023-09-18T11:16:17;22.90;1.00
3860;DHT22;1945;52.036;8.614;2023-09-18T11:18:47;22.70;1.00
3860;DHT22;1945;52.036;8.614;2023-09-18T11:21:15;22.60;1.00
3860;DHT22;1945;52.036;8.614;2023-09-18T11:23:46;22.60;1.00
3860;DHT22;1945;52.036;8.614;2023-09-18T11:26:31;22.70;1.00
3860;DHT22;1945;52.036;8.614;2023-09-18T11:29:03;22.90;1.00
3860;DHT22;1945;52.036;8.614;2023-09-18T11:31:54;22.90;1.00
3860;DHT22;1945;52.036;8.614;2023-09-18T11:34:22;23.10;1.00
3860;DHT22;1945;52.036;8.614;2023-09-18T11:36:52;22.90;1.00
3860;DHT22;1945;52.036;8.614;2023-09-18T11:39:36;22.90;1.00
3860;DHT22;1945;52.036;8.614;2023-09-18T11:42:10;22.90;1.00
3860;DHT22;1945;52.036;8.614;2023-09-18T11:44:38;23.00;1.00
3860;DHT22;1945;52.036;8.614;2023-09-18T11:47:14;23.00;1.00
3860;DHT22;1945;52.036;8.614;2023-09-18T11:49:52;23.10;1.00
3860;DHT22;1945;52.036;8.614;2023-09-18T11:52:25;23.50;1.00
3860;DHT22;1945;52.036;8.614;2023-09-18T11:54:53;23.60;1.00
3860;DHT22;1945;52.036;8.614;2023-09-18T11:57:20;23.90;1.00
3860;DHT22;1945;52.036;8.614;2023-09-18T11:59:47;24.10;99.90
3860;DHT22;1945;52.036;8.614;2023-09-18T12:02:26;23.60;99.90
3860;DHT22;1945;52.036;8.614;2023-09-18T12:05:05;23.30;99.90
3860;DHT22;1945;52.036;8.614;2023-09-18T12:07:32;23.60;99.90
3860;DHT22;1945;52.036;8.614;2023-09-18T12:09:59;23.60;1.00
3860;DHT22;1945;52.036;8.614;2023-09-18T12:12:27;23.30;1.00
3860;DHT22;1945;52.036;8.614;2023-09-18T12:14:54;23.40;1.00
3860;DHT22;1945;52.036;8.614;2023-09-18T12:17:21;23.40;1.00
3860;DHT22;1945;52.036;8.614;2023-09-18T12:19:53;23.60;99.90
3860;DHT22;1945;52.036;8.614;2023-09-18T12:22:24;23.50;99.90
3860;DHT22;1945;52.036;8.614;2023-09-18T12:24:51;23.40;1.00
3860;DHT22;1945;52.036;8.614;2023-09-18T12:27:18;23.50;99.90
3860;DHT22;1945;52.036;8.614;2023-09-18T12:29:46;23.40;1.00
3860;DHT22;1945;52.036;8.614;2023-09-18T12:32:13;23.50;1.00
3860;DHT22;1945;52.036;8.614;2023-09-18T12:34:40;23.60;99.90
3860;DHT22;1945;52.036;8.614;2023-09-18T12:37:09;23.50;99.90
3860;DHT22;1945;52.036;8.614;2023-09-18T12:39:36;23.60;99.90
3860;DHT22;1945;52.036;8.614;2023-09-18T12:42:04;23.50;99.90
3860;DHT22;1945;52.036;8.614;2023-09-18T12:44:31;23.50;1.00
3860;DHT22;1945;52.036;8.614;2023-09-18T12:46:57;23.50;99.90
3860;DHT22;1945;52.036;8.614;2023-09-18T12:49:30;23.50;99.90
3860;DHT22;1945;52.036;8.614;2023-09-18T12:51:58;23.60;99.90
3860;DHT22;1945;52.036;8.614;2023-09-18T12:54:39;23.70;99.90
3860;DHT22;1945;52.036;8.614;2023-09-18T12:57:07;23.70;99.90
3860;DHT22;1945;52.036;8.614;2023-09-18T12:59:35;23.80;99.90
3860;DHT22;1945;52.036;8.614;2023-09-18T13:02:03;24.20;99.90
3860;DHT22;1945;52.036;8.614;2023-09-18T13:04:30;24.40;99.90
3860;DHT22;1945;52.036;8.614;2023-09-18T13:07:06;24.10;99.90
3860;DHT22;1945;52.036;8.614;2023-09-18T13:09:34;24.10;99.90
3860;DHT22;1945;52.036;8.614;2023-09-18T13:12:05;24.10;99.90
3860;DHT22;1945;52.036;8.614;2023-09-18T13:14:59;24.10;99.90
3860;DHT22;1945;52.036;8.614;2023-09-18T13:17:37;24.10;99.90
3860;DHT22;1945;52.036;8.614;2023-09-18T13:20:11;23.90;99.90
3860;DHT22;1945;52.036;8.614;2023-09-18T13:22:39;24.00;99.90
3860;DHT22;1945;52.036;8.614;2023-09-18T13:25:06;24.10;99.90
3860;DHT22;1945;52.036;8.614;2023-09-18T13:27:35;24.10;99.90
3860;DHT22;1945;52.036;8.614;2023-09-18T13:30:02;24.10;99.90
3860;DHT22;1945;52.036;8.614;2023-09-18T13:32:33;24.20;99.90
3860;DHT22;1945;52.036;8.614;2023-09-18T13:35:01;24.30;99.90
3860;DHT22;1945;52.036;8.614;2023-09-18T13:37:28;24.30;99.90
3860;DHT22;1945;52.036;8.614;2023-09-18T13:39:56;24.30;60.80
3860;DHT22;1945;52.036;8.614;2023-09-18T13:42:22;24.10;42.60
3860;DHT22;1945;52.036;8.614;2023-09-18T13:44:50;24.10;1.00
3860;DHT22;1945;52.036;8.614;2023-09-18T13:47:19;24.20;99.90
3860;DHT22;1945;52.036;8.614;2023-09-18T13:49:46;24.00;81.70
3860;DHT22;1945;52.036;8.614;2023-09-18T13:52:13;24.00;73.70
3860;DHT22;1945;52.036;8.614;2023-09-18T13:54:40;24.20;54.70
3860;DHT22;1945;52.036;8.614;2023-09-18T13:57:07;24.40;88.90
3860;DHT22;1945;52.036;8.614;2023-09-18T13:59:33;24.40;1.00
3860;DHT22;1945;52.036;8.614;2023-09-18T14:02:01;24.50;1.00
3860;DHT22;1945;52.036;8.614;2023-09-18T14:04:29;24.60;1.00
3860;DHT22;1945;52.036;8.614;2023-09-18T14:06:56;24.60;1.00
3860;DHT22;1945;52.036;8.614;2023-09-18T14:09:22;24.60;1.00
3860;DHT22;1945;52.036;8.614;2023-09-18T14:11:51;24.50;1.00
3860;DHT22;1945;52.036;8.614;2023-09-18T14:14:20;24.40;1.00
3860;DHT22;1945;52.036;8.614;2023-09-18T14:16:48;24.30;1.00
3860;DHT22;1945;52.036;8.614;2023-09-18T14:19:17;24.30;84.70
3860;DHT22;1945;52.036;8.614;2023-09-18T14:21:44;24.30;1.00
3860;DHT22;1945;52.036;8.614;2023-09-18T14:24:11;24.30;1.00
3860;DHT22;1945;52.036;8.614;2023-09-18T14:26:38;24.10;1.00
3860;DHT22;1945;52.036;8.614;2023-09-18T14:29:07;24.10;1.00
3860;DHT22;1945;52.036;8.614;2023-09-18T14:31:35;23.70;1.00
3860;DHT22;1945;52.036;8.614;2023-09-18T14:34:02;23.60;1.00
3860;DHT22;1945;52.036;8.614;2023-09-18T14:36:36;23.60;1.00
3860;DHT22;1945;52.036;8.614;2023-09-18T14:39:04;23.60;99.10
3860;DHT22;1945;52.036;8.614;2023-09-18T14:41:35;23.50;1.00
3860;DHT22;1945;52.036;8.614;2023-09-18T14:44:03;23.50;1.00
3860;DHT22;1945;52.036;8.614;2023-09-18T14:46:30;23.40;18.00
3860;DHT22;1945;52.036;8.614;2023-09-18T14:48:58;23.50;99.90
3860;DHT22;1945;52.036;8.614;2023-09-18T14:51:25;23.30;99.90
3860;DHT22;1945;52.036;8.614;2023-09-18T14:53:54;22.90;99.90
3860;DHT22;1945;52.036;8.614;2023-09-18T14:56:21;22.50;99.90
3860;DHT22;1945;52.036;8.614;2023-09-18T14:58:48;22.40;99.90
3860;DHT22;1945;52.036;8.614;2023-09-18T15:01:17;22.10;1.00
3860;DHT22;1945;52.036;8.614;2023-09-18T15:03:44;21.70;99.90
3860;DHT22;1945;52.036;8.614;2023-09-18T15:06:11;21.50;99.90
3860;DHT22;1945;52.036;8.614;2023-09-18T15:08:38;21.50;99.90
3860;DHT22;1945;52.036;8.614;2023-09-18T15:11:06;21.40;99.90
3860;DHT22;1945;52.036;8.614;2023-09-18T15:13:35;21.50;1.00
3860;DHT22;1945;52.036;8.614;2023-09-18T15:16:02;21.60;1.00
3860;DHT22;1945;52.036;8.614;2023-09-18T15:18:29;21.60;1.00
3860;DHT22;1945;52.036;8.614;2023-09-18T15:20:55;21.70;1.00
3860;DHT22;1945;52.036;8.614;2023-09-18T15:23:22;21.50;1.00
3860;DHT22;1945;52.036;8.614;2023-09-18T15:25:49;21.70;1.00
3860;DHT22;1945;52.036;8.614;2023-09-18T15:28:20;21.70;1.00
3860;DHT22;1945;52.036;8.614;2023-09-18T15:30:47;21.80;1.00
3860;DHT22;1945;52.036;8.614;2023-09-18T15:33:14;21.90;1.00
3860;DHT22;1945;52.036;8.614;2023-09-18T15:35:45;22.10;1.00
3860;DHT22;1945;52.036;8.614;2023-09-18T15:38:12;22.10;1.00
3860;DHT22;1945;52.036;8.614;2023-09-18T15:40:39;22.10;99.90
3860;DHT22;1945;52.036;8.614;2023-09-18T15:43:06;22.10;1.00
3860;DHT22;1945;52.036;8.614;2023-09-18T15:45:34;22.20;1.00
3860;DHT22;1945;52.036;8.614;2023-09-18T15:48:02;22.20;1.00
3860;DHT22;1945;52.036;8.614;2023-09-18T15:50:30;22.30;1.00
3860;DHT22;1945;52.036;8.614;2023-09-18T15:52:56;22.20;1.00
3860;DHT22;1945;52.036;8.614;2023-09-18T15:55:23;22.20;1.00
3860;DHT22;1945;52.036;8.614;2023-09-18T15:57:51;22.20;1.00
3860;DHT22;1945;52.036;8.614;2023-09-18T16:00:19;22.20;1.00
3860;DHT22;1945;52.036;8.614;2023-09-18T16:02:47;22.10;1.00
3860;DHT22;1945;52.036;8.614;2023-09-18T16:05:15;22.20;1.00
3860;DHT22;1945;52.036;8.614;2023-09-18T16:07:44;22.10;1.00
3860;DHT22;1945;52.036;8.614;2023-09-18T16:10:11;22.10;1.00
3860;DHT22;1945;52.036;8.614;2023-09-18T16:12:38;22.10;1.00
3860;DHT22;1945;52.036;8.614;2023-09-18T16:15:05;22.10;1.00